ACF weather

Brisbane Archerfield Airport
Brisbane, Queensland, Australia

Public forecast

Using degrees Celsius for public forecast. Weather courtesy of forecast.io.

METAR (pilot weather report)

Closest report is Brisbane International Airport, 12.6 nm (23.3 km) NNE. Retrieved 2018/07/19 01:30 UTC (0 seconds ago):

YBBN 190130Z 36006KT CAVOK 20/02 Q1021

TAF (pilot weather forecast)

Forecast is more than 12 hours old.

Closest forecast is Brisbane International Airport, 12.6 nm (23.3 km) NNE. Retrieved 2018/07/18 00:39 UTC (1 day ago):

TAF YBBN 182317Z 1900/2006 21005KT CAVOK FM190200 01010KT CAVOK FM191000 33008KT CAVOK FM200300 30014KT 9999 FEW030 BKN080